createdAt,value
2022-11-15T00:00:27.054Z,7.96
2022-11-15T00:02:53.412Z,7.88
2022-11-15T00:05:19.729Z,7.74
2022-11-15T00:07:55.703Z,7.74
2022-11-15T00:10:12.406Z,7.75
2022-11-15T00:12:38.723Z,7.80
2022-11-15T00:15:05.076Z,7.86
2022-11-15T00:17:31.400Z,7.86
2022-11-15T00:19:57.733Z,7.85
2022-11-15T00:22:24.063Z,7.79
2022-11-15T00:24:50.433Z,7.74
2022-11-15T00:27:16.781Z,7.72
2022-11-15T00:29:43.100Z,7.74
2022-11-15T00:32:09.460Z,7.72
2022-11-15T00:34:35.813Z,7.67
2022-11-15T00:37:02.213Z,7.73
2022-11-15T00:39:28.572Z,7.77
2022-11-15T00:41:54.952Z,7.75
2022-11-15T00:44:21.305Z,7.76
2022-11-15T00:46:47.691Z,7.70
2022-11-15T00:49:14.014Z,7.66
2022-11-15T00:51:40.365Z,7.66
2022-11-15T00:54:06.720Z,7.69
2022-11-15T00:56:33.148Z,7.70
2022-11-15T00:58:59.482Z,7.74
2022-11-15T01:01:26.020Z,7.70
2022-11-15T01:03:52.282Z,7.57
2022-11-15T01:06:18.637Z,7.42
2022-11-15T01:08:44.997Z,7.33
2022-11-15T01:11:11.309Z,7.28
2022-11-15T01:13:37.670Z,7.31
2022-11-15T01:16:03.986Z,7.39
2022-11-15T01:18:30.321Z,7.36
2022-11-15T01:20:56.703Z,7.36
2022-11-15T01:23:23.046Z,7.39
2022-11-15T01:25:49.362Z,7.28
2022-11-15T01:28:15.734Z,7.18
2022-11-15T01:30:42.051Z,7.01
2022-11-15T01:33:08.372Z,6.80
2022-11-15T01:35:34.731Z,6.75
2022-11-15T01:38:01.095Z,6.84
2022-11-15T01:40:27.512Z,6.67
2022-11-15T01:42:53.830Z,6.69
2022-11-15T01:45:20.187Z,6.65
2022-11-15T01:47:46.565Z,6.48
2022-11-15T01:50:12.916Z,6.40
2022-11-15T01:52:39.287Z,6.46
2022-11-15T01:55:05.621Z,6.42
2022-11-15T01:57:31.972Z,6.37
2022-11-15T01:59:58.331Z,6.44
2022-11-15T02:02:24.682Z,6.47
2022-11-15T02:04:51.082Z,6.49
2022-11-15T02:07:17.465Z,6.25
2022-11-15T02:09:43.727Z,6.18
2022-11-15T02:12:10.095Z,6.20
2022-11-15T02:14:36.410Z,6.05
2022-11-15T02:17:02.740Z,5.93
2022-11-15T02:19:29.185Z,5.95
2022-11-15T02:21:55.510Z,5.88
2022-11-15T02:24:21.828Z,5.91
2022-11-15T02:26:48.188Z,5.99
2022-11-15T02:29:14.582Z,5.89
2022-11-15T02:31:40.919Z,5.82
2022-11-15T02:34:07.287Z,5.93
2022-11-15T02:36:33.634Z,6.00
2022-11-15T02:38:59.991Z,5.96
2022-11-15T02:41:26.347Z,5.95
2022-11-15T02:43:52.731Z,6.03
2022-11-15T02:46:19.100Z,5.93
2022-11-15T02:48:45.449Z,5.80
2022-11-15T02:51:11.815Z,5.80
2022-11-15T02:53:38.157Z,5.73
2022-11-15T02:56:04.518Z,5.73
2022-11-15T02:58:30.923Z,5.61
2022-11-15T03:00:57.328Z,5.75
2022-11-15T03:03:23.666Z,5.91
2022-11-15T03:05:50.029Z,5.80
2022-11-15T03:08:16.353Z,5.92
2022-11-15T03:10:42.681Z,5.91
2022-11-15T03:13:09.075Z,5.98
2022-11-15T03:15:35.421Z,5.88
2022-11-15T03:18:01.745Z,5.78
2022-11-15T03:20:28.075Z,5.73
2022-11-15T03:22:54.530Z,5.64
2022-11-15T03:25:20.807Z,5.69
2022-11-15T03:27:47.140Z,5.79
2022-11-15T03:30:13.459Z,5.85
2022-11-15T03:32:39.797Z,5.87
2022-11-15T03:35:06.126Z,5.78
2022-11-15T03:37:32.514Z,5.76
2022-11-15T03:39:58.858Z,5.66
2022-11-15T03:42:25.276Z,5.63
2022-11-15T03:44:51.607Z,5.63
2022-11-15T03:47:18.000Z,5.60
2022-11-15T03:49:44.349Z,5.53
2022-11-15T03:52:10.668Z,5.53
2022-11-15T03:54:36.988Z,5.52
2022-11-15T03:57:03.347Z,5.48
2022-11-15T03:59:29.722Z,5.39
2022-11-15T04:01:56.081Z,5.34
2022-11-15T04:04:22.488Z,5.28
2022-11-15T04:06:48.903Z,5.29
2022-11-15T04:09:15.205Z,5.28
2022-11-15T04:11:41.525Z,5.22
2022-11-15T04:14:07.899Z,5.34
2022-11-15T04:16:35.179Z,5.41
2022-11-15T04:19:00.611Z,5.30
2022-11-15T04:21:26.923Z,5.23
2022-11-15T04:23:53.271Z,5.20
2022-11-15T04:26:19.589Z,5.14
2022-11-15T04:28:45.914Z,5.09
2022-11-15T04:31:12.291Z,5.12
2022-11-15T04:33:38.606Z,5.28
2022-11-15T04:36:04.960Z,5.21
2022-11-15T04:38:31.307Z,5.27
2022-11-15T04:40:57.628Z,5.33
2022-11-15T04:43:23.942Z,5.46
2022-11-15T04:45:50.342Z,5.41
2022-11-15T04:48:16.664Z,5.51
2022-11-15T04:50:43.017Z,5.64
2022-11-15T04:53:09.375Z,5.72
2022-11-15T04:55:35.695Z,5.74
2022-11-15T04:58:02.052Z,5.80
2022-11-15T05:00:28.413Z,5.85
2022-11-15T05:02:54.813Z,5.92
2022-11-15T05:05:21.162Z,5.92
2022-11-15T05:07:47.518Z,6.00
2022-11-15T05:10:13.871Z,6.15
2022-11-15T05:12:40.197Z,6.25
2022-11-15T05:15:06.513Z,6.35
2022-11-15T05:17:32.873Z,6.30
2022-11-15T05:19:59.272Z,6.36
2022-11-15T05:22:25.632Z,6.39
2022-11-15T05:24:51.981Z,6.37
2022-11-15T05:27:18.357Z,6.39
2022-11-15T05:29:44.710Z,6.49
2022-11-15T05:32:11.064Z,6.58
2022-11-15T05:34:37.411Z,6.74
2022-11-15T05:37:03.726Z,6.64
2022-11-15T05:39:30.084Z,6.57
2022-11-15T05:41:56.483Z,6.69
2022-11-15T05:44:22.794Z,6.83
2022-11-15T05:46:49.151Z,6.85
2022-11-15T05:49:15.503Z,6.93
2022-11-15T05:51:41.912Z,6.88
2022-11-15T05:54:08.225Z,6.89
2022-11-15T05:56:34.595Z,6.95
2022-11-15T05:59:00.931Z,6.94
2022-11-15T06:01:27.281Z,6.87
2022-11-15T06:03:53.625Z,6.98
2022-11-15T06:06:19.992Z,7.11
2022-11-15T06:08:46.394Z,7.25
2022-11-15T06:11:12.794Z,7.33
2022-11-15T06:13:39.119Z,7.48
2022-11-15T06:16:05.520Z,7.38
2022-11-15T06:18:31.852Z,7.38
2022-11-15T06:20:58.221Z,7.42
2022-11-15T06:23:26.224Z,7.47
2022-11-15T06:25:50.916Z,7.59
2022-11-15T06:28:17.261Z,7.61
2022-11-15T06:30:43.638Z,7.72
2022-11-15T06:33:10.078Z,7.70
2022-11-15T06:35:36.500Z,7.78
2022-11-15T06:38:02.810Z,7.75
2022-11-15T06:40:29.132Z,7.85
2022-11-15T06:42:55.451Z,7.86
2022-11-15T06:45:21.816Z,7.77
2022-11-15T06:47:48.223Z,7.71
2022-11-15T06:50:14.594Z,7.68
2022-11-15T06:52:41.035Z,7.75
2022-11-15T06:55:07.352Z,7.90
2022-11-15T06:57:33.717Z,7.80
2022-11-15T07:00:00.111Z,7.86
2022-11-15T07:02:26.411Z,7.88
2022-11-15T07:04:52.770Z,7.92
2022-11-15T07:07:19.165Z,7.97
2022-11-15T07:09:45.445Z,7.89
2022-11-15T07:12:11.801Z,7.75
2022-11-15T07:14:38.177Z,7.93
2022-11-15T07:17:04.608Z,8.13
2022-11-15T07:19:30.954Z,8.20
2022-11-15T07:21:57.274Z,8.14
2022-11-15T07:24:23.643Z,8.23
2022-11-15T07:26:49.995Z,8.08
2022-11-15T07:29:16.346Z,7.95
2022-11-15T07:31:42.702Z,8.01
2022-11-15T07:34:09.041Z,7.95
2022-11-15T07:36:35.343Z,8.07
2022-11-15T07:39:01.662Z,8.19
2022-11-15T07:41:28.063Z,8.26
2022-11-15T07:43:54.426Z,8.11
2022-11-15T07:46:20.810Z,8.00
2022-11-15T07:48:47.162Z,7.94
2022-11-15T07:51:14.312Z,7.94
2022-11-15T07:53:39.846Z,7.79
2022-11-15T07:56:06.201Z,7.75
2022-11-15T07:58:32.527Z,7.94
2022-11-15T08:00:59.091Z,7.94
2022-11-15T08:03:25.321Z,7.85
2022-11-15T08:05:51.708Z,7.93
2022-11-15T08:08:18.063Z,7.97
2022-11-15T08:10:44.492Z,8.03
2022-11-15T08:13:10.937Z,8.13
2022-11-15T08:15:37.235Z,8.06
2022-11-15T08:18:03.595Z,8.03
2022-11-15T08:20:29.939Z,8.08
2022-11-15T08:22:56.260Z,8.12
2022-11-15T08:25:22.575Z,8.21
2022-11-15T08:27:48.957Z,8.27
2022-11-15T08:30:15.318Z,8.40
2022-11-15T08:32:41.640Z,8.49
2022-11-15T08:35:07.953Z,8.38
2022-11-15T08:37:34.285Z,8.28
2022-11-15T08:40:00.686Z,8.33
2022-11-15T08:42:27.038Z,8.48
2022-11-15T08:44:53.425Z,8.62
2022-11-15T08:47:19.736Z,8.67
2022-11-15T08:49:46.091Z,8.62
2022-11-15T08:52:12.440Z,8.73
2022-11-15T08:54:38.755Z,8.69
2022-11-15T08:57:05.082Z,8.73
2022-11-15T08:59:31.432Z,8.63
2022-11-15T09:01:58.148Z,8.47
2022-11-15T09:04:24.373Z,8.50
2022-11-15T09:06:50.740Z,8.33
2022-11-15T09:09:17.029Z,8.34
2022-11-15T09:11:43.351Z,8.31
2022-11-15T09:14:09.670Z,8.49
2022-11-15T09:16:36.027Z,8.53
2022-11-15T09:19:03.204Z,8.79
2022-11-15T09:21:28.742Z,8.81
2022-11-15T09:23:55.064Z,8.69
2022-11-15T09:26:21.523Z,8.55
2022-11-15T09:28:47.837Z,8.53
2022-11-15T09:31:19.293Z,8.60
2022-11-15T09:33:40.571Z,8.63
2022-11-15T09:36:06.891Z,8.62
2022-11-15T09:38:33.668Z,8.79
2022-11-15T09:40:59.526Z,8.91
2022-11-15T09:43:25.927Z,8.92
2022-11-15T09:45:52.274Z,8.89
2022-11-15T09:48:18.645Z,8.86
2022-11-15T09:50:44.957Z,8.82
2022-11-15T09:53:11.318Z,8.84
2022-11-15T09:55:37.634Z,8.84
2022-11-15T09:58:03.975Z,8.93
2022-11-15T10:00:47.641Z,8.91
2022-11-15T10:02:56.709Z,9.07
2022-11-15T10:05:23.059Z,9.07
2022-11-15T10:07:49.416Z,9.19
2022-11-15T10:10:15.763Z,9.04
2022-11-15T10:12:42.135Z,9.23
2022-11-15T10:15:08.441Z,9.36
2022-11-15T10:17:34.784Z,9.42
2022-11-15T10:20:05.296Z,9.45
2022-11-15T10:22:27.421Z,9.78
2022-11-15T10:24:53.733Z,9.88
2022-11-15T10:27:20.144Z,9.99
2022-11-15T10:29:46.480Z,10.23
2022-11-15T10:32:12.797Z,10.44
2022-11-15T10:34:39.114Z,10.53
2022-11-15T10:37:05.473Z,10.33
2022-11-15T10:42:17.919Z,10.21
2022-11-15T10:44:42.355Z,10.49
2022-11-15T10:47:08.677Z,10.63
2022-11-15T10:49:35.001Z,10.63
2022-11-15T10:52:01.322Z,10.81
2022-11-15T10:54:27.691Z,10.68
2022-11-15T10:56:54.049Z,10.73
2022-11-15T10:59:20.388Z,10.92
2022-11-15T11:01:46.753Z,11.05
2022-11-15T11:04:13.119Z,11.32
2022-11-15T11:06:39.474Z,11.80
2022-11-15T11:09:05.832Z,12.25
2022-11-15T11:11:32.193Z,12.61
2022-11-15T11:13:58.544Z,12.85
2022-11-15T11:16:24.867Z,12.85
2022-11-15T11:18:51.242Z,12.48
2022-11-15T11:21:17.559Z,13.04
2022-11-15T11:23:43.924Z,13.44
2022-11-15T11:26:10.279Z,13.42
2022-11-15T11:28:36.643Z,13.08
2022-11-15T11:31:02.948Z,13.37
2022-11-15T11:33:29.276Z,13.64
2022-11-15T11:35:55.599Z,13.56
2022-11-15T11:38:21.959Z,13.79
2022-11-15T11:40:48.279Z,13.88
2022-11-15T11:43:14.634Z,14.28
2022-11-15T11:45:46.174Z,14.23
2022-11-15T11:48:07.312Z,14.09
2022-11-15T11:50:33.632Z,14.38
2022-11-15T11:53:03.912Z,14.51
2022-11-15T11:55:26.349Z,14.61
2022-11-15T11:57:52.707Z,14.75
2022-11-15T12:00:19.021Z,14.57
2022-11-15T12:02:45.432Z,14.42
2022-11-15T12:05:11.741Z,14.16
2022-11-15T12:07:38.088Z,14.07
2022-11-15T12:10:04.457Z,13.66
2022-11-15T12:12:30.819Z,13.62
2022-11-15T12:14:57.179Z,13.52
2022-11-15T12:17:23.532Z,13.75
2022-11-15T12:19:49.900Z,14.11
2022-11-15T12:22:16.269Z,14.39
2022-11-15T12:24:42.625Z,14.51
2022-11-15T12:27:08.941Z,14.84
2022-11-15T12:29:35.317Z,14.98
2022-11-15T12:32:01.666Z,14.51
2022-11-15T12:34:27.984Z,14.58
2022-11-15T12:36:54.305Z,14.65
2022-11-15T12:39:20.679Z,14.67
2022-11-15T12:41:47.037Z,14.43
2022-11-15T12:44:13.344Z,14.71
2022-11-15T12:46:39.664Z,15.06
2022-11-15T12:49:06.048Z,15.06
2022-11-15T12:51:32.380Z,15.13
2022-11-15T12:53:58.703Z,15.21
2022-11-15T12:56:25.067Z,15.23
2022-11-15T12:58:51.383Z,15.06
2022-11-15T13:01:17.805Z,14.89
2022-11-15T13:03:44.140Z,15.14
2022-11-15T13:06:10.488Z,15.24
2022-11-15T13:08:36.805Z,15.17
2022-11-15T13:11:03.208Z,15.07
2022-11-15T13:13:29.523Z,15.08
2022-11-15T13:15:55.893Z,14.67
2022-11-15T13:18:22.271Z,14.69
2022-11-15T13:20:48.623Z,14.61
2022-11-15T13:23:14.942Z,14.77
2022-11-15T13:25:41.264Z,14.81
2022-11-15T13:28:08.157Z,14.77
2022-11-15T13:30:33.953Z,14.65
2022-11-15T13:33:00.329Z,14.53
2022-11-15T13:35:26.689Z,14.26
2022-11-15T13:37:53.043Z,13.81
2022-11-15T13:40:19.358Z,13.67
2022-11-15T13:42:46.069Z,13.71
2022-11-15T13:45:12.014Z,13.55
2022-11-15T13:47:38.377Z,13.28
2022-11-15T13:50:09.559Z,13.03
2022-11-15T13:52:31.098Z,13.08
2022-11-15T13:54:57.463Z,13.11
2022-11-15T13:57:23.762Z,12.95
2022-11-15T13:59:50.119Z,12.92
2022-11-15T14:02:16.442Z,12.92
2022-11-15T14:04:42.758Z,12.82
2022-11-15T14:07:09.174Z,12.76
2022-11-15T14:09:35.513Z,12.65
2022-11-15T14:12:01.834Z,12.67
2022-11-15T14:14:28.226Z,12.66
2022-11-15T14:16:54.593Z,12.55
2022-11-15T14:19:20.898Z,12.55
2022-11-15T14:21:47.303Z,12.38
2022-11-15T14:24:13.661Z,12.35
2022-11-15T14:26:40.023Z,12.44
2022-11-15T14:29:06.450Z,12.35
2022-11-15T14:31:32.806Z,12.31
2022-11-15T14:33:59.121Z,12.29
2022-11-15T14:36:25.519Z,12.12
2022-11-15T14:38:51.873Z,12.08
2022-11-15T14:41:18.225Z,11.89
2022-11-15T14:43:44.581Z,11.85
2022-11-15T14:46:10.957Z,11.77
2022-11-15T14:48:37.318Z,11.58
2022-11-15T14:51:03.672Z,11.57
2022-11-15T14:53:30.026Z,11.57
2022-11-15T14:55:56.362Z,11.43
2022-11-15T14:58:22.671Z,11.34
2022-11-15T15:00:49.076Z,11.35
2022-11-15T15:03:15.390Z,11.40
2022-11-15T15:05:41.760Z,11.44
2022-11-15T15:08:08.173Z,11.30
2022-11-15T15:10:42.305Z,11.11
2022-11-15T15:13:00.765Z,11.10
2022-11-15T15:15:27.179Z,11.03
2022-11-15T15:17:53.674Z,10.97
2022-11-15T15:20:20.036Z,10.91
2022-11-15T15:22:46.348Z,10.82
2022-11-15T15:25:12.680Z,10.82
2022-11-15T15:27:39.031Z,10.86
2022-11-15T15:30:05.397Z,10.84
2022-11-15T15:32:31.752Z,10.78
2022-11-15T15:34:58.071Z,10.81
2022-11-15T15:37:24.473Z,10.83
2022-11-15T15:39:50.804Z,10.78
2022-11-15T15:42:17.110Z,10.81
2022-11-15T15:44:43.477Z,10.89
2022-11-15T15:47:09.834Z,10.93
2022-11-15T15:49:36.194Z,10.87
2022-11-15T15:52:02.549Z,10.84
2022-11-15T15:54:28.866Z,10.71
2022-11-15T15:56:56.403Z,10.59
2022-11-15T15:59:21.603Z,10.51
2022-11-15T16:01:47.991Z,10.48
2022-11-15T16:04:14.312Z,10.47
2022-11-15T16:06:40.704Z,10.54
2022-11-15T16:09:16.249Z,10.55
2022-11-15T16:11:33.371Z,10.59
2022-11-15T16:13:59.736Z,10.60
2022-11-15T16:16:26.054Z,10.59
2022-11-15T16:18:52.416Z,10.60
2022-11-15T16:21:18.752Z,10.57
2022-11-15T16:23:45.115Z,10.67
2022-11-15T16:26:11.424Z,10.56
2022-11-15T16:28:38.059Z,10.55
2022-11-15T16:31:04.104Z,10.53
2022-11-15T16:33:30.672Z,10.50
2022-11-15T16:35:56.742Z,10.55
2022-11-15T16:38:23.126Z,10.55
2022-11-15T16:40:49.442Z,10.53
2022-11-15T16:43:15.780Z,10.59
2022-11-15T16:45:42.130Z,10.61
2022-11-15T16:48:08.489Z,10.53
2022-11-15T16:50:34.844Z,10.50
2022-11-15T16:53:01.200Z,10.55
2022-11-15T16:55:27.585Z,10.53
2022-11-15T16:57:53.892Z,10.43
2022-11-15T17:00:20.214Z,10.43
2022-11-15T17:02:46.575Z,10.46
2022-11-15T17:05:17.334Z,10.46
2022-11-15T17:07:39.324Z,10.48
2022-11-15T17:10:05.648Z,10.52
2022-11-15T17:12:32.006Z,10.52
2022-11-15T17:14:58.320Z,10.46
2022-11-15T17:17:24.717Z,10.34
2022-11-15T17:19:51.100Z,10.24
2022-11-15T17:22:17.418Z,10.30
2022-11-15T17:24:43.804Z,10.27
2022-11-15T17:27:10.130Z,10.16
2022-11-15T17:29:36.450Z,10.10
2022-11-15T17:32:02.854Z,10.09
2022-11-15T17:34:29.168Z,9.94
2022-11-15T17:36:55.491Z,9.99
2022-11-15T17:39:21.873Z,10.04
2022-11-15T17:41:48.183Z,10.11
2022-11-15T17:44:14.525Z,10.03
2022-11-15T17:46:40.877Z,10.07
2022-11-15T17:49:07.190Z,10.01
2022-11-15T17:51:33.550Z,9.95
2022-11-15T17:53:59.905Z,9.80
2022-11-15T17:56:26.259Z,9.86
2022-11-15T17:58:52.760Z,10.00
2022-11-15T18:01:19.140Z,10.08
2022-11-15T18:03:45.481Z,10.03
2022-11-15T18:06:11.775Z,10.00
2022-11-15T18:08:38.199Z,9.96
2022-11-15T18:11:04.491Z,9.94
2022-11-15T18:13:31.205Z,10.00
2022-11-15T18:15:57.170Z,9.97
2022-11-15T18:18:23.620Z,9.93
2022-11-15T18:20:49.969Z,9.89
2022-11-15T18:23:16.326Z,9.71
2022-11-15T18:25:42.680Z,9.70
2022-11-15T18:28:09.035Z,9.65
2022-11-15T18:30:35.353Z,9.61
2022-11-15T18:33:01.721Z,9.63
2022-11-15T18:35:28.158Z,9.69
2022-11-15T18:37:54.483Z,9.68
2022-11-15T18:40:20.805Z,9.62
2022-11-15T18:42:47.120Z,9.63
2022-11-15T18:45:13.519Z,9.67
2022-11-15T18:47:39.865Z,9.66
2022-11-15T18:50:06.188Z,9.67
2022-11-15T18:52:32.500Z,9.67
2022-11-15T18:54:58.818Z,9.72
2022-11-15T18:57:25.190Z,9.66
2022-11-15T18:59:51.539Z,9.53
2022-11-15T19:02:17.819Z,9.62
2022-11-15T19:04:44.303Z,9.62
2022-11-15T19:07:10.768Z,9.54
2022-11-15T19:09:37.037Z,9.44
2022-11-15T19:12:03.388Z,9.49
2022-11-15T19:14:29.704Z,9.53
2022-11-15T19:16:56.016Z,9.54
2022-11-15T19:19:22.376Z,9.50
2022-11-15T19:21:48.760Z,9.47
2022-11-15T19:24:15.209Z,9.44
2022-11-15T19:26:41.553Z,9.51
2022-11-15T19:29:07.913Z,9.42
2022-11-15T19:31:34.253Z,9.32
2022-11-15T19:34:00.577Z,9.40
2022-11-15T19:36:26.902Z,9.34
2022-11-15T19:38:53.251Z,9.32
2022-11-15T19:41:19.642Z,9.27
2022-11-15T19:43:46.022Z,9.29
2022-11-15T19:46:12.379Z,9.35
2022-11-15T19:48:38.740Z,9.35
2022-11-15T19:51:05.042Z,9.01
2022-11-15T19:53:35.171Z,8.98
2022-11-15T19:55:57.732Z,9.11
2022-11-15T19:58:24.045Z,9.21
2022-11-15T20:00:50.533Z,9.30
2022-11-15T20:03:16.791Z,9.28
2022-11-15T20:05:43.149Z,9.29
2022-11-15T20:08:09.459Z,9.08
2022-11-15T20:10:35.819Z,8.93
2022-11-15T20:13:02.135Z,9.02
2022-11-15T20:15:28.472Z,8.96
2022-11-15T20:17:54.797Z,9.00
2022-11-15T20:20:21.118Z,9.16
2022-11-15T20:22:47.492Z,9.19
2022-11-15T20:25:13.865Z,9.04
2022-11-15T20:27:40.176Z,8.98
2022-11-15T20:30:06.541Z,8.76
2022-11-15T20:32:32.892Z,8.57
2022-11-15T20:34:59.244Z,8.50
2022-11-15T20:37:25.593Z,8.39
2022-11-15T20:39:51.927Z,8.49
2022-11-15T20:42:18.284Z,8.58
2022-11-15T20:44:44.643Z,8.67
2022-11-15T20:47:10.999Z,8.75
2022-11-15T20:49:37.353Z,8.78
2022-11-15T20:52:03.667Z,8.73
2022-11-15T20:54:30.024Z,8.68
2022-11-15T20:56:56.373Z,8.67
2022-11-15T20:59:22.777Z,8.64
2022-11-15T21:01:49.137Z,8.64
2022-11-15T21:04:15.413Z,8.63
2022-11-15T21:06:47.499Z,8.70
2022-11-15T21:09:08.095Z,8.69
2022-11-15T21:11:34.440Z,8.81
2022-11-15T21:14:02.884Z,8.85
2022-11-15T21:16:27.094Z,8.86
2022-11-15T21:18:53.454Z,8.79
2022-11-15T21:21:19.803Z,8.71
2022-11-15T21:23:46.159Z,8.63
2022-11-15T21:26:12.512Z,8.53
2022-11-15T21:28:38.898Z,8.42
2022-11-15T21:31:05.203Z,8.39
2022-11-15T21:33:31.562Z,8.31
2022-11-15T21:35:57.895Z,8.31
2022-11-15T21:38:24.272Z,8.24
2022-11-15T21:40:50.643Z,8.16
2022-11-15T21:43:16.999Z,8.12
2022-11-15T21:45:43.384Z,8.09
2022-11-15T21:48:09.739Z,7.96
2022-11-15T21:50:36.048Z,7.82
2022-11-15T21:53:02.374Z,7.73
2022-11-15T21:55:28.697Z,7.73
2022-11-15T21:57:55.010Z,7.61
2022-11-15T22:00:21.388Z,7.60
2022-11-15T22:02:47.771Z,7.69
2022-11-15T22:05:14.082Z,7.68
2022-11-15T22:07:40.441Z,7.74
2022-11-15T22:10:06.749Z,7.75
2022-11-15T22:12:33.115Z,7.72
2022-11-15T22:14:59.487Z,7.56
2022-11-15T22:17:25.866Z,7.61
2022-11-15T22:19:53.079Z,7.65
2022-11-15T22:22:18.548Z,7.64
2022-11-15T22:24:44.903Z,7.66
2022-11-15T22:27:11.299Z,7.51
2022-11-15T22:29:37.612Z,7.43
2022-11-15T22:32:03.951Z,7.47
2022-11-15T22:34:30.319Z,7.49
2022-11-15T22:37:19.205Z,7.42
2022-11-15T22:39:22.993Z,7.38
2022-11-15T22:41:49.309Z,7.46
2022-11-15T22:44:15.663Z,7.52
2022-11-15T22:46:42.010Z,7.54
2022-11-15T22:49:08.320Z,7.70
2022-11-15T22:51:34.675Z,7.76
2022-11-15T22:54:01.032Z,7.69
2022-11-15T22:56:27.376Z,7.72
2022-11-15T22:58:53.693Z,7.76
2022-11-15T23:01:20.041Z,7.64
2022-11-15T23:03:46.409Z,7.36
2022-11-15T23:06:12.690Z,7.24
2022-11-15T23:08:39.250Z,7.11
2022-11-15T23:11:05.364Z,6.91
2022-11-15T23:13:31.714Z,6.79
2022-11-15T23:15:58.043Z,6.84
2022-11-15T23:18:24.359Z,6.73
2022-11-15T23:20:50.728Z,6.56
2022-11-15T23:23:17.145Z,6.56
2022-11-15T23:25:43.501Z,6.58
2022-11-15T23:28:09.847Z,6.71
2022-11-15T23:30:36.221Z,6.71
2022-11-15T23:33:02.546Z,6.54
2022-11-15T23:35:28.853Z,6.47
2022-11-15T23:37:55.241Z,6.40
2022-11-15T23:40:21.599Z,6.38
2022-11-15T23:42:47.939Z,6.38
2022-11-15T23:45:14.371Z,6.42
2022-11-15T23:47:40.734Z,6.28
2022-11-15T23:50:07.087Z,6.33
2022-11-15T23:52:33.479Z,6.31
2022-11-15T23:54:59.791Z,6.28
2022-11-15T23:57:26.243Z,6.18
2022-11-15T23:59:52.557Z,6.27
